Time;durP1;ratioP1;P1;durP2;ratioP2;P2;SDS_P1;SDS_P2;PMS_P1;PMS_P2;Temp;Humidity;BMP_temperature;BMP_pressure;BME280_temperature;BME280_humidity;BME280_pressure;Samples;Min_cycle;Max_cycle;Signal;HPM_P1;HPM_P2
2023/01/20 00:01:38;;;;;;;0.30;0.30;;;-2.30;95.20;;;;;;5054089;28;20169;-68
2023/01/20 00:04:04;;;;;;;0.85;0.82;;;-2.50;95.30;;;;;;5053884;28;20210;-70
2023/01/20 00:06:30;;;;;;;0.35;0.35;;;-2.60;95.30;;;;;;5054033;28;20497;-70
2023/01/20 00:08:59;;;;;;;0.40;0.40;;;-2.80;95.30;;;;;;5052459;28;20191;-72
2023/01/20 00:11:26;;;;;;;0.43;0.43;;;-2.90;95.40;;;;;;5053863;28;20169;-69
2023/01/20 00:13:56;;;;;;;0.30;0.30;;;-2.90;95.60;;;;;;5053797;28;20181;-68
2023/01/20 00:16:23;;;;;;;0.40;0.40;;;-2.90;95.80;;;;;;5053840;28;20177;-71
2023/01/20 00:18:48;;;;;;;0.40;0.40;;;-2.90;96.00;;;;;;5053427;28;20255;-69
2023/01/20 00:21:17;;;;;;;2.00;1.07;;;-2.80;95.90;;;;;;5053911;28;20345;-69
2023/01/20 00:23:44;;;;;;;0.40;0.40;;;-2.80;95.80;;;;;;5053270;28;20251;-70
2023/01/20 00:26:18;;;;;;;0.40;0.40;;;-2.80;95.80;;;;;;5053640;28;20188;-72
2023/01/20 00:28:44;;;;;;;0.30;0.30;;;-2.80;95.80;;;;;;5053496;28;20689;-71
2023/01/20 00:31:13;;;;;;;0.30;0.30;;;-2.80;95.90;;;;;;5053668;28;20231;-71
2023/01/20 00:33:39;;;;;;;0.30;0.30;;;-2.70;95.80;;;;;;5052043;28;20260;-69
2023/01/20 00:36:05;;;;;;;0.60;0.60;;;-2.60;95.60;;;;;;5053458;28;20228;-72
2023/01/20 00:38:31;;;;;;;0.30;0.30;;;-2.60;95.40;;;;;;5053409;28;20225;-68
2023/01/20 00:40:56;;;;;;;0.40;0.40;;;-2.70;95.40;;;;;;5053411;28;20220;-71
2023/01/20 00:43:22;;;;;;;0.30;0.30;;;-2.70;95.40;;;;;;5052961;28;20285;-68
2023/01/20 00:45:47;;;;;;;0.30;0.30;;;-2.70;95.40;;;;;;5053486;28;20174;-69
2023/01/20 00:48:13;;;;;;;0.40;0.40;;;-2.70;95.40;;;;;;5053226;28;20251;-68
2023/01/20 00:50:39;;;;;;;0.30;0.30;;;-2.80;95.30;;;;;;5053208;28;20180;-70
2023/01/20 00:53:04;;;;;;;0.30;0.30;;;-2.80;95.30;;;;;;5053016;28;20508;-69
2023/01/20 00:55:31;;;;;;;0.50;0.50;;;-2.80;95.30;;;;;;5053528;28;20223;-67
2023/01/20 00:57:56;;;;;;;0.40;0.40;;;-2.80;95.40;;;;;;5053283;28;20227;-72
2023/01/20 01:00:22;;;;;;;0.47;0.47;;;-2.70;95.40;;;;;;5053169;28;20245;-70
2023/01/20 01:02:47;;;;;;;0.30;0.30;;;-2.60;95.40;;;;;;5053199;28;20204;-70
2023/01/20 01:05:13;;;;;;;0.40;0.40;;;-2.60;95.40;;;;;;5053403;28;20534;-71
2023/01/20 01:07:54;;;;;;;0.40;0.40;;;-2.50;95.30;;;;;;5021228;28;20758;-71
2023/01/20 01:10:19;;;;;;;0.30;0.30;;;-2.40;95.10;;;;;;5057155;28;20260;-70
2023/01/20 01:12:45;;;;;;;0.40;0.40;;;-2.40;95.00;;;;;;5057013;28;20274;-68
2023/01/20 01:15:11;;;;;;;0.30;0.30;;;-2.40;94.80;;;;;;5057407;28;20170;-70
2023/01/20 01:17:36;;;;;;;0.30;0.30;;;-2.40;94.70;;;;;;5056988;28;20173;-71
2023/01/20 01:20:03;;;;;;;0.40;0.40;;;-2.40;94.60;;;;;;5056932;28;20429;-69
2023/01/20 01:22:31;;;;;;;0.32;0.32;;;-2.30;94.60;;;;;;5056816;28;20190;-71
2023/01/20 01:24:57;;;;;;;0.40;0.40;;;-2.40;94.60;;;;;;5057057;28;20535;-71
2023/01/20 01:27:23;;;;;;;0.30;0.30;;;-2.40;94.80;;;;;;5056973;28;20177;-69
2023/01/20 01:29:48;;;;;;;0.30;0.30;;;-2.30;94.90;;;;;;5056697;28;20422;-69
2023/01/20 01:32:14;;;;;;;0.30;0.30;;;-2.30;94.90;;;;;;5056578;28;20186;-69
2023/01/20 01:34:40;;;;;;;0.43;0.43;;;-2.30;94.90;;;;;;5056819;28;20170;-70
2023/01/20 01:37:05;;;;;;;0.37;0.37;;;-2.30;95.00;;;;;;5056807;28;20518;-70
2023/01/20 01:39:31;;;;;;;0.40;0.40;;;-2.20;95.10;;;;;;5056714;28;20205;-71
2023/01/20 01:41:57;;;;;;;0.30;0.30;;;-2.10;94.90;;;;;;5056316;28;20197;-72
2023/01/20 01:44:26;;;;;;;0.40;0.40;;;-2.10;94.80;;;;;;5056784;28;20178;-72
2023/01/20 01:46:51;;;;;;;0.40;0.40;;;-2.10;94.80;;;;;;5056595;28;20166;-70
2023/01/20 01:49:24;;;;;;;0.40;0.40;;;-2.10;94.80;;;;;;5056416;28;20193;-68
2023/01/20 01:52:01;;;;;;;0.32;0.32;;;-2.00;94.90;;;;;;5055002;28;20643;-71
2023/01/20 01:54:33;;;;;;;0.30;0.30;;;-2.00;94.90;;;;;;5057006;28;20182;-71
2023/01/20 01:57:00;;;;;;;0.30;0.30;;;-1.90;94.80;;;;;;5056783;28;20606;-69
2023/01/20 01:59:25;;;;;;;0.30;0.30;;;-1.90;94.30;;;;;;5056163;28;20264;-71
2023/01/20 02:01:52;;;;;;;0.30;0.30;;;-1.90;94.20;;;;;;5056202;28;20635;-73
2023/01/20 02:04:22;;;;;;;0.30;0.30;;;-1.90;94.30;;;;;;5056325;28;20483;-72
2023/01/20 02:06:52;;;;;;;0.40;0.40;;;-1.80;94.50;;;;;;5056258;28;20177;-69
2023/01/20 02:09:18;;;;;;;0.40;0.40;;;-1.70;94.50;;;;;;5056022;28;20273;-70
2023/01/20 02:11:57;;;;;;;0.40;0.40;;;-1.70;94.40;;;;;;5056020;28;20711;-71
2023/01/20 02:14:49;;;;;;;0.30;0.30;;;-1.70;94.50;;;;;;5056135;28;20178;-72
2023/01/20 02:17:34;;;;;;;0.30;0.30;;;-1.70;94.40;;;;;;5055954;28;20696;-71
2023/01/20 02:20:27;;;;;;;0.40;0.40;;;-1.60;94.50;;;;;;5055074;28;20232;-71
2023/01/20 02:23:29;;;;;;;0.30;0.30;;;-1.70;94.70;;;;;;5055712;28;20190;-68
2023/01/20 02:26:07;;;;;;;0.30;0.30;;;-1.60;94.90;;;;;;5055764;28;20166;-71
2023/01/20 02:29:11;;;;;;;0.40;0.40;;;-1.60;95.00;;;;;;5055729;28;20194;-70
2023/01/20 02:32:01;;;;;;;0.40;0.40;;;-1.50;95.00;;;;;;5055558;28;20166;-72
2023/01/20 02:34:57;;;;;;;0.30;0.30;;;-1.50;94.80;;;;;;5055630;28;20181;-68
2023/01/20 02:37:37;;;;;;;0.40;0.40;;;-1.50;94.70;;;;;;5055673;28;20572;-71
2023/01/20 02:40:11;;;;;;;0.38;0.38;;;-1.40;94.80;;;;;;5055449;28;20185;-71
2023/01/20 02:42:43;;;;;;;0.30;0.30;;;-1.40;94.80;;;;;;5055387;28;20347;-72
2023/01/20 02:45:51;;;;;;;0.30;0.30;;;-1.30;94.90;;;;;;5054136;28;20631;-72
2023/01/20 02:48:33;;;;;;;0.40;0.40;;;-1.20;94.90;;;;;;5033451;28;20195;-70
2023/01/20 02:51:09;;;;;;;0.30;0.30;;;-1.30;94.80;;;;;;5033584;28;20170;-69
2023/01/20 02:53:45;;;;;;;0.30;0.30;;;-1.30;94.90;;;;;;5048070;28;20749;-69
2023/01/20 02:56:12;;;;;;;0.40;0.40;;;-1.30;94.90;;;;;;5055365;28;20173;-70
2023/01/20 02:58:49;;;;;;;0.30;0.30;;;-1.30;95.00;;;;;;5055143;28;20226;-70
2023/01/20 03:01:22;;;;;;;0.30;0.30;;;-1.30;94.80;;;;;;5055542;28;20627;-68
2023/01/20 03:03:51;;;;;;;0.40;0.40;;;-1.30;94.70;;;;;;5054928;28;20201;-72
2023/01/20 03:06:20;;;;;;;0.38;0.38;;;-1.30;94.40;;;;;;5055055;28;20176;-70
2023/01/20 03:08:49;;;;;;;0.40;0.40;;;-1.40;94.40;;;;;;5055005;28;20654;-71
2023/01/20 03:11:15;;;;;;;0.30;0.30;;;-1.40;94.60;;;;;;5054847;28;20166;-73
2023/01/20 03:13:54;;;;;;;0.30;0.30;;;-1.40;94.80;;;;;;5054678;28;20185;-71
2023/01/20 03:16:22;;;;;;;0.30;0.30;;;-1.30;94.90;;;;;;5055054;28;20220;-71
2023/01/20 03:18:49;;;;;;;0.35;0.35;;;-1.30;94.90;;;;;;5054809;28;20214;-70
2023/01/20 03:21:14;;;;;;;0.40;0.40;;;-1.20;95.00;;;;;;5054711;28;20512;-71
2023/01/20 03:23:46;;;;;;;0.50;0.50;;;-1.20;94.90;;;;;;5054693;28;20229;-69
2023/01/20 03:26:14;;;;;;;0.30;0.30;;;-1.20;94.90;;;;;;5054807;28;20249;-70
2023/01/20 03:28:41;;;;;;;0.40;0.40;;;-1.10;94.90;;;;;;5054464;28;20243;-72
2023/01/20 03:31:28;;;;;;;0.32;0.32;;;-1.10;94.90;;;;;;5053668;28;20577;-70
2023/01/20 03:33:57;;;;;;;0.38;0.38;;;-1.10;94.90;;;;;;5054323;28;20185;-71
2023/01/20 03:36:25;;;;;;;0.40;0.40;;;-1.10;95.00;;;;;;5054536;28;20212;-71
2023/01/20 03:38:53;;;;;;;0.77;0.77;;;-1.10;94.90;;;;;;5054205;28;20213;-71
2023/01/20 03:41:41;;;;;;;0.32;0.32;;;-1.20;94.90;;;;;;5054337;28;20170;-72
2023/01/20 03:44:28;;;;;;;0.40;0.40;;;-1.10;94.90;;;;;;5054510;28;20206;-69
2023/01/20 03:47:17;;;;;;;0.30;0.30;;;-1.20;94.90;;;;;;5054369;28;20170;-69
2023/01/20 03:50:05;;;;;;;0.30;0.30;;;-1.20;95.00;;;;;;5054117;28;20194;-70
2023/01/20 03:52:55;;;;;;;0.30;0.30;;;-1.20;94.90;;;;;;5054082;28;20166;-72
2023/01/20 03:55:41;;;;;;;0.30;0.30;;;-1.30;95.00;;;;;;5053610;28;20186;-72
2023/01/20 03:58:17;;;;;;;0.40;0.40;;;-1.30;94.90;;;;;;5054030;28;20229;-69
2023/01/20 04:00:46;;;;;;;0.40;0.40;;;-1.20;95.00;;;;;;5054015;28;20204;-72
2023/01/20 04:03:23;;;;;;;0.35;0.35;;;-1.20;95.00;;;;;;5053634;28;20201;-69
2023/01/20 04:05:50;;;;;;;0.38;0.38;;;-1.20;95.00;;;;;;5053898;28;20194;-72
2023/01/20 04:08:19;;;;;;;0.40;0.40;;;-1.10;95.00;;;;;;5052475;28;20678;-70
2023/01/20 04:10:47;;;;;;;0.30;0.30;;;-1.20;94.70;;;;;;5053793;28;20228;-68
2023/01/20 04:13:14;;;;;;;0.40;0.40;;;-1.20;94.80;;;;;;5053737;28;20174;-71
2023/01/20 04:15:45;;;;;;;0.40;0.40;;;-1.20;94.80;;;;;;5053682;28;20264;-70
2023/01/20 04:18:12;;;;;;;0.40;0.40;;;-1.20;94.90;;;;;;5053817;28;20285;-70
2023/01/20 04:20:37;;;;;;;0.40;0.40;;;-1.20;94.90;;;;;;5053589;28;20185;-71
2023/01/20 04:23:04;;;;;;;0.80;0.80;;;-1.20;94.90;;;;;;5053488;28;20611;-71
2023/01/20 04:25:31;;;;;;;0.30;0.30;;;-1.10;95.00;;;;;;5053674;28;20197;-70
2023/01/20 04:27:57;;;;;;;0.30;0.30;;;-1.10;94.80;;;;;;5053586;28;20198;-68
2023/01/20 04:30:23;;;;;;;0.50;0.50;;;-1.10;94.60;;;;;;5053523;28;20346;-72
2023/01/20 04:32:48;;;;;;;0.40;0.40;;;-1.10;94.60;;;;;;5053396;28;20400;-71
2023/01/20 04:35:17;;;;;;;0.40;0.40;;;-1.10;94.60;;;;;;5053490;28;20413;-71
2023/01/20 04:37:43;;;;;;;0.30;0.30;;;-1.10;94.70;;;;;;5053431;28;20541;-69
2023/01/20 04:40:09;;;;;;;0.47;0.47;;;-1.10;94.70;;;;;;5053489;28;20177;-72
2023/01/20 04:42:35;;;;;;;0.30;0.30;;;-1.20;94.70;;;;;;5052872;28;20193;-69
2023/01/20 04:45:01;;;;;;;0.40;0.40;;;-1.10;94.70;;;;;;5053513;28;20194;-71
2023/01/20 04:47:32;;;;;;;0.30;0.30;;;-1.20;94.60;;;;;;5053249;28;20201;-71
2023/01/20 04:49:58;;;;;;;0.30;0.30;;;-1.20;94.60;;;;;;5053530;28;20173;-68
2023/01/20 04:52:23;;;;;;;0.40;0.40;;;-1.20;94.60;;;;;;5053144;28;20170;-69
2023/01/20 04:54:49;;;;;;;0.30;0.30;;;-1.20;94.40;;;;;;5053538;28;20649;-71
2023/01/20 04:57:15;;;;;;;0.40;0.40;;;-1.20;94.40;;;;;;5053461;28;20657;-68
2023/01/20 04:59:41;;;;;;;0.30;0.30;;;-1.30;94.50;;;;;;5053362;28;20247;-72
2023/01/20 05:02:07;;;;;;;0.30;0.30;;;-1.30;94.60;;;;;;5053169;28;20178;-69
2023/01/20 05:04:33;;;;;;;0.30;0.30;;;-1.40;94.80;;;;;;5051910;28;20193;-71
2023/01/20 05:06:58;;;;;;;2.70;2.50;;;-1.40;94.90;;;;;;5053271;28;20232;-70
2023/01/20 05:09:24;;;;;;;0.30;0.30;;;-1.40;94.90;;;;;;5053115;28;20272;-71
2023/01/20 05:11:49;;;;;;;0.30;0.30;;;-1.30;94.80;;;;;;5053090;28;20167;-69
2023/01/20 05:14:15;;;;;;;0.50;0.50;;;-1.30;95.10;;;;;;5053267;28;20174;-69
2023/01/20 05:16:41;;;;;;;0.40;0.40;;;-1.30;94.80;;;;;;5053336;28;20257;-69
2023/01/20 05:19:07;;;;;;;0.40;0.40;;;-1.30;94.80;;;;;;5052880;28;20217;-70
2023/01/20 05:21:33;;;;;;;0.30;0.30;;;-1.30;94.70;;;;;;5053119;28;20639;-70
2023/01/20 05:23:58;;;;;;;0.30;0.30;;;-1.20;94.70;;;;;;5052916;28;20675;-71
2023/01/20 05:26:24;;;;;;;0.40;0.40;;;-1.20;94.60;;;;;;5053147;28;20169;-70
2023/01/20 05:28:50;;;;;;;0.40;0.40;;;-1.20;94.60;;;;;;5052943;28;20562;-71
2023/01/20 05:31:16;;;;;;;0.30;0.30;;;-1.30;94.60;;;;;;5052930;28;20308;-70
2023/01/20 05:33:42;;;;;;;0.30;0.30;;;-1.20;94.70;;;;;;5052792;28;20408;-69
2023/01/20 05:36:09;;;;;;;0.30;0.30;;;-1.20;94.80;;;;;;5053099;28;20407;-70
2023/01/20 05:38:35;;;;;;;0.30;0.30;;;-1.10;94.80;;;;;;5051610;28;20697;-70
2023/01/20 05:41:02;;;;;;;0.40;0.40;;;-1.10;94.80;;;;;;5052883;28;20232;-69
2023/01/20 05:43:28;;;;;;;0.30;0.30;;;-1.20;94.60;;;;;;5052528;28;20194;-71
2023/01/20 05:45:54;;;;;;;0.40;0.40;;;-1.20;94.60;;;;;;5052796;28;20170;-68
2023/01/20 05:48:20;;;;;;;1.33;0.87;;;-1.20;94.70;;;;;;5052899;28;20186;-69
2023/01/20 05:50:47;;;;;;;0.30;0.30;;;-1.20;94.60;;;;;;5052801;28;20815;-69
2023/01/20 05:53:13;;;;;;;0.32;0.32;;;-1.10;94.50;;;;;;5052657;28;20175;-70
2023/01/20 05:55:39;;;;;;;0.30;0.30;;;-1.20;94.50;;;;;;5055096;28;20170;-70
2023/01/20 05:58:05;;;;;;;0.30;0.30;;;-1.20;94.50;;;;;;5056452;28;20220;-71
2023/01/20 06:00:31;;;;;;;0.70;0.70;;;-1.20;94.50;;;;;;5056458;28;20196;-69
2023/01/20 06:02:57;;;;;;;0.30;0.30;;;-1.20;94.40;;;;;;5056055;28;20198;-70
2023/01/20 06:05:23;;;;;;;0.30;0.30;;;-1.20;94.30;;;;;;5056275;28;20190;-72
2023/01/20 06:07:48;;;;;;;0.30;0.30;;;-1.30;94.30;;;;;;5056129;28;20512;-67
2023/01/20 06:10:15;;;;;;;0.30;0.30;;;-1.50;94.40;;;;;;5056114;28;20304;-71
2023/01/20 06:12:41;;;;;;;1.00;0.60;;;-1.60;94.60;;;;;;5055754;28;20534;-69
2023/01/20 06:15:07;;;;;;;0.50;0.50;;;-1.60;94.70;;;;;;5056416;28;20181;-69
2023/01/20 06:17:33;;;;;;;0.40;0.40;;;-1.70;94.60;;;;;;5054633;28;20639;-69
2023/01/20 06:19:59;;;;;;;0.30;0.30;;;-1.80;94.50;;;;;;5055835;28;20198;-68
2023/01/20 06:22:25;;;;;;;0.50;0.50;;;-1.90;94.60;;;;;;5055725;28;20194;-69
2023/01/20 06:24:51;;;;;;;0.47;0.47;;;-2.00;94.80;;;;;;5056007;28;20200;-71
2023/01/20 06:27:17;;;;;;;0.40;0.40;;;-2.00;94.90;;;;;;5055685;28;20906;-70
2023/01/20 06:29:43;;;;;;;0.30;0.30;;;-1.90;94.90;;;;;;5055665;28;20523;-68
2023/01/20 06:32:10;;;;;;;0.40;0.40;;;-1.80;94.70;;;;;;5055510;28;20253;-69
2023/01/20 06:34:35;;;;;;;0.50;0.50;;;-1.90;94.60;;;;;;5055707;28;20190;-69
2023/01/20 06:37:02;;;;;;;0.40;0.40;;;-1.90;94.60;;;;;;5055759;28;20666;-70
2023/01/20 06:39:28;;;;;;;0.50;0.50;;;-2.00;94.50;;;;;;5055681;28;20597;-69
2023/01/20 06:41:57;;;;;;;0.40;0.40;;;-2.10;94.60;;;;;;5055332;28;20170;-70
2023/01/20 06:44:24;;;;;;;0.40;0.40;;;-2.10;94.60;;;;;;5055873;28;20448;-72
2023/01/20 06:46:50;;;;;;;0.30;0.30;;;-2.20;94.60;;;;;;5055635;28;20171;-70
2023/01/20 06:49:16;;;;;;;0.30;0.30;;;-2.20;94.60;;;;;;5055357;28;20182;-72
2023/01/20 06:51:42;;;;;;;0.40;0.40;;;-2.30;94.50;;;;;;5055355;28;20526;-70
2023/01/20 06:54:07;;;;;;;0.40;0.40;;;-2.20;94.60;;;;;;5055449;28;20474;-69
2023/01/20 06:56:33;;;;;;;0.40;0.40;;;-2.30;94.60;;;;;;5053953;28;20182;-70
2023/01/20 06:58:59;;;;;;;0.30;0.30;;;-2.40;94.50;;;;;;5055168;28;20666;-70
2023/01/20 07:01:27;;;;;;;0.33;0.33;;;-2.50;94.40;;;;;;5055218;28;20174;-71
2023/01/20 07:03:54;;;;;;;0.30;0.30;;;-2.50;94.50;;;;;;5055008;28;20225;-70
2023/01/20 07:06:25;;;;;;;0.40;0.40;;;-2.50;94.50;;;;;;5054930;28;20170;-70
2023/01/20 07:08:51;;;;;;;0.30;0.30;;;-2.50;94.50;;;;;;5055136;28;20186;-72
2023/01/20 07:11:16;;;;;;;0.30;0.30;;;-2.40;94.40;;;;;;5055420;28;20500;-71
2023/01/20 07:13:42;;;;;;;0.40;0.40;;;-2.50;94.20;;;;;;5054783;28;20170;-68
2023/01/20 07:16:09;;;;;;;0.30;0.30;;;-2.50;94.20;;;;;;5054941;28;20166;-72
2023/01/20 07:18:34;;;;;;;0.40;0.40;;;-2.50;94.30;;;;;;5054705;28;20272;-70
2023/01/20 07:21:01;;;;;;;0.40;0.40;;;-2.50;94.40;;;;;;5054933;28;20581;-70
2023/01/20 07:23:28;;;;;;;1.02;1.02;;;-2.40;94.30;;;;;;5054435;28;20542;-70
2023/01/20 07:26:15;;;;;;;0.40;0.40;;;-2.30;94.30;;;;;;5054638;28;20197;-71
2023/01/20 07:28:40;;;;;;;0.30;0.30;;;-2.30;94.30;;;;;;5054787;28;20182;-69
2023/01/20 07:31:09;;;;;;;0.40;0.40;;;-2.30;94.20;;;;;;5053322;28;20713;-70
2023/01/20 07:33:35;;;;;;;0.63;0.60;;;-2.30;94.10;;;;;;5054561;28;20257;-71
2023/01/20 07:36:01;;;;;;;0.30;0.30;;;-2.30;94.10;;;;;;5054647;28;20178;-69
2023/01/20 07:38:28;;;;;;;0.40;0.40;;;-2.20;94.20;;;;;;5054354;28;20194;-70
2023/01/20 07:41:01;;;;;;;0.40;0.40;;;-2.10;94.30;;;;;;5054469;28;20447;-70
2023/01/20 07:43:27;;;;;;;0.40;0.40;;;-2.00;94.20;;;;;;5054162;28;20209;-70
2023/01/20 07:46:00;;;;;;;0.40;0.40;;;-1.90;94.00;;;;;;5053180;28;20170;-70
2023/01/20 07:48:28;;;;;;;0.40;0.40;;;-1.80;94.00;;;;;;5054176;28;20194;-70
2023/01/20 07:51:00;;;;;;;0.82;0.60;;;-1.70;94.00;;;;;;5054217;28;20223;-70
2023/01/20 07:53:27;;;;;;;0.40;0.40;;;-1.70;93.80;;;;;;5054265;28;20526;-72
2023/01/20 07:55:53;;;;;;;0.30;0.30;;;-1.60;93.80;;;;;;5054115;28;20170;-69
2023/01/20 07:58:18;;;;;;;0.40;0.40;;;-1.50;93.80;;;;;;5054120;28;20197;-71
2023/01/20 08:00:47;;;;;;;0.40;0.40;;;-1.40;93.40;;;;;;5054087;28;20174;-70
2023/01/20 08:03:14;;;;;;;0.40;0.40;;;-1.40;93.00;;;;;;5053976;28;20194;-71
2023/01/20 08:05:39;;;;;;;0.30;0.30;;;-1.30;92.90;;;;;;5053979;28;20243;-69
2023/01/20 08:08:05;;;;;;;0.70;0.70;;;-1.30;93.10;;;;;;5053996;28;20690;-71
2023/01/20 08:10:30;;;;;;;4.10;1.00;;;-1.10;93.30;;;;;;5053694;28;20170;-69
2023/01/20 08:12:57;;;;;;;0.30;0.30;;;-1.00;92.80;;;;;;5052387;28;20193;-70
2023/01/20 08:15:23;;;;;;;0.40;0.40;;;-0.90;92.30;;;;;;5052663;28;20189;-73
2023/01/20 08:17:53;;;;;;;0.40;0.40;;;-0.90;92.20;;;;;;5053475;28;20194;-72
2023/01/20 08:20:19;;;;;;;4.72;1.60;;;-0.80;92.20;;;;;;5053689;28;20240;-70
2023/01/20 08:22:44;;;;;;;0.40;0.40;;;-0.60;92.50;;;;;;5053389;28;20201;-70
2023/01/20 08:25:10;;;;;;;0.30;0.30;;;-0.50;92.40;;;;;;5053847;28;20254;-71
2023/01/20 08:27:35;;;;;;;0.40;0.40;;;-0.50;92.00;;;;;;5053688;28;20170;-69
2023/01/20 08:30:02;;;;;;;0.30;0.30;;;-0.40;92.00;;;;;;5053511;28;20269;-70
2023/01/20 08:32:29;;;;;;;0.75;0.75;;;-0.20;91.70;;;;;;5053404;28;20225;-70
2023/01/20 08:34:55;;;;;;;1.77;0.93;;;-0.10;91.30;;;;;;5053770;28;20178;-70
2023/01/20 08:37:20;;;;;;;10.43;2.40;;;0.00;91.40;;;;;;5053572;28;20178;-70
2023/01/20 08:39:46;;;;;;;1.30;1.23;;;0.10;90.90;;;;;;5053417;28;20425;-69
2023/01/20 08:42:12;;;;;;;0.40;0.40;;;0.10;90.80;;;;;;5053332;28;20174;-71
2023/01/20 08:44:37;;;;;;;0.40;0.40;;;0.10;90.90;;;;;;5053565;28;20170;-70
2023/01/20 08:47:03;;;;;;;0.40;0.40;;;0.30;91.20;;;;;;5053376;28;20169;-71
2023/01/20 08:49:28;;;;;;;0.50;0.50;;;0.40;91.20;;;;;;5053357;28;20186;-71
2023/01/20 08:51:55;;;;;;;0.30;0.30;;;0.40;91.10;;;;;;5053371;28;20168;-72
2023/01/20 08:54:21;;;;;;;0.30;0.30;;;0.60;91.30;;;;;;5053427;28;20574;-72
2023/01/20 08:56:56;;;;;;;0.50;0.50;;;0.70;91.20;;;;;;5053521;28;20180;-71
2023/01/20 08:59:22;;;;;;;0.30;0.30;;;0.80;91.10;;;;;;5053403;28;20577;-69
2023/01/20 09:01:47;;;;;;;0.70;0.70;;;1.00;90.80;;;;;;5053086;28;20203;-71
2023/01/20 09:04:13;;;;;;;0.30;0.30;;;1.20;90.10;;;;;;5053178;28;20196;-69
2023/01/20 09:06:48;;;;;;;0.40;0.40;;;1.40;89.30;;;;;;5053268;28;20650;-68
2023/01/20 09:09:15;;;;;;;0.40;0.40;;;1.70;89.50;;;;;;5053266;28;20207;-68
2023/01/20 09:11:43;;;;;;;0.40;0.40;;;1.90;88.50;;;;;;5052811;28;20232;-69
2023/01/20 09:14:09;;;;;;;1.40;1.23;;;2.10;87.80;;;;;;5053101;28;20174;-69
2023/01/20 09:16:35;;;;;;;0.68;0.68;;;2.20;87.30;;;;;;5053126;28;20254;-71
2023/01/20 09:19:02;;;;;;;0.40;0.40;;;2.50;85.50;;;;;;5052901;28;20641;-70
2023/01/20 09:21:27;;;;;;;0.40;0.40;;;2.70;84.60;;;;;;5053271;28;20575;-71
2023/01/20 09:23:53;;;;;;;0.53;0.53;;;3.00;84.40;;;;;;5052969;28;20202;-71
2023/01/20 09:26:18;;;;;;;0.50;0.50;;;3.30;83.70;;;;;;5053169;28;20166;-69
2023/01/20 09:28:45;;;;;;;0.50;0.50;;;3.50;82.50;;;;;;5053787;28;20235;-71
2023/01/20 09:31:12;;;;;;;0.50;0.50;;;3.50;81.50;;;;;;5056877;28;20158;-71
2023/01/20 09:33:39;;;;;;;0.40;0.40;;;3.40;80.80;;;;;;5056521;28;20242;-69
2023/01/20 09:36:07;;;;;;;0.40;0.40;;;3.20;80.50;;;;;;5056940;28;20528;-71
2023/01/20 09:44:41;;;;;;;0.50;0.50;;;3.30;80.20;;;;;;5056732;28;20209;-72
2023/01/20 09:47:18;;;;;;;0.60;0.60;;;3.30;80.40;;;;;;5056717;28;20228;-68
2023/01/20 09:55:32;;;;;;;0.70;0.70;;;3.90;80.80;;;;;;5056609;28;20285;-71
2023/01/20 09:58:07;;;;;;;0.47;0.47;;;4.10;79.20;;;;;;5056393;28;20558;-70
2023/01/20 10:00:35;;;;;;;0.70;0.70;;;4.20;77.10;;;;;;5056354;28;20625;-69
2023/01/20 10:03:35;;;;;;;0.50;0.50;;;4.20;77.10;;;;;;5056071;28;20206;-71
2023/01/20 10:06:16;;;;;;;1.17;1.10;;;4.40;77.40;;;;;;5056380;28;20170;-70
2023/01/20 10:08:50;;;;;;;0.60;0.60;;;5.60;78.30;;;;;;5056250;28;20200;-72
2023/01/20 10:11:18;;;;;;;0.75;0.60;;;6.80;74.00;;;;;;5056215;28;20170;-69
2023/01/20 10:13:50;;;;;;;0.50;0.50;;;7.20;70.50;;;;;;5056005;28;20257;-72
2023/01/20 10:16:54;;;;;;;0.40;0.40;;;7.30;67.80;;;;;;5056168;28;20176;-71
2023/01/20 10:19:27;;;;;;;0.60;0.50;;;7.10;67.60;;;;;;5055761;28;20578;-72
2023/01/20 10:22:12;;;;;;;0.60;0.60;;;6.80;67.10;;;;;;5055840;28;20188;-70
2023/01/20 10:24:57;;;;;;;0.43;0.43;;;7.00;67.60;;;;;;5056037;28;20186;-72
2023/01/20 10:27:28;;;;;;;0.50;0.47;;;7.80;65.50;;;;;;5056012;28;20215;-72
2023/01/20 10:30:03;;;;;;;1.15;1.05;;;8.60;61.50;;;;;;5055853;28;20186;-70
2023/01/20 10:32:37;;;;;;;2.15;1.95;;;8.60;58.60;;;;;;5055430;28;20256;-70
2023/01/20 10:35:17;;;;;;;0.37;0.37;;;9.60;59.80;;;;;;5055828;28;20172;-70
2023/01/20 10:37:43;;;;;;;1.90;0.63;;;10.90;56.60;;;;;;5056010;28;20401;-72
2023/01/20 10:40:43;;;;;;;0.30;0.30;;;12.00;52.60;;;;;;5055172;28;20393;-69
2023/01/20 10:43:14;;;;;;;0.30;0.30;;;12.80;47.40;;;;;;5048347;28;20743;-71
2023/01/20 10:45:58;;;;;;;0.30;0.30;;;13.40;45.10;;;;;;5055624;28;20404;-72
2023/01/20 10:48:48;;;;;;;0.60;0.60;;;14.00;46.10;;;;;;5055258;28;20420;-71
2023/01/20 10:51:49;;;;;;;0.40;0.40;;;14.50;44.20;;;;;;5055301;28;20386;-70
2023/01/20 10:54:36;;;;;;;0.40;0.40;;;14.50;42.80;;;;;;5055643;28;20452;-70
2023/01/20 10:57:04;;;;;;;0.40;0.40;;;14.30;43.90;;;;;;5055343;28;20416;-70
2023/01/20 10:59:42;;;;;;;0.80;0.80;;;13.60;41.60;;;;;;5055054;28;20420;-73
2023/01/20 11:02:27;;;;;;;0.70;0.70;;;13.00;41.20;;;;;;5055097;28;20400;-70
2023/01/20 11:04:59;;;;;;;1.27;1.17;;;13.00;40.10;;;;;;5055360;28;20786;-72
2023/01/20 11:07:26;;;;;;;0.40;0.40;;;13.20;39.50;;;;;;5055255;28;20386;-70
2023/01/20 11:09:52;;;;;;;1.90;1.10;;;13.20;42.80;;;;;;5054846;28;20470;-70
2023/01/20 11:12:23;;;;;;;0.83;0.83;;;13.10;43.20;;;;;;5053565;28;20448;-72
2023/01/20 11:14:50;;;;;;;0.30;0.30;;;12.90;41.90;;;;;;5055053;28;20178;-72
2023/01/20 11:17:19;;;;;;;0.40;0.40;;;12.30;37.00;;;;;;5055309;28;20388;-70
2023/01/20 11:19:49;;;;;;;1.37;0.50;;;11.60;37.30;;;;;;5054649;28;20467;-72
2023/01/20 11:22:36;;;;;;;0.40;0.40;;;10.60;40.20;;;;;;5054691;28;20393;-73
2023/01/20 11:25:03;;;;;;;0.50;0.50;;;9.60;42.50;;;;;;5054530;28;20281;-69
2023/01/20 11:27:41;;;;;;;0.55;0.52;;;8.90;45.50;;;;;;5054912;28;20488;-72
2023/01/20 11:30:23;;;;;;;0.70;0.70;;;8.70;46.50;;;;;;5054680;28;20155;-70
2023/01/20 11:33:18;;;;;;;0.30;0.30;;;8.50;47.00;;;;;;5054638;28;20174;-72
2023/01/20 11:36:00;;;;;;;0.40;0.40;;;8.00;46.80;;;;;;5054548;28;20253;-71
2023/01/20 11:38:41;;;;;;;1.20;0.80;;;7.40;48.20;;;;;;5054629;28;20312;-70
2023/01/20 11:41:18;;;;;;;0.40;0.40;;;6.70;48.40;;;;;;5054456;28;20248;-69
2023/01/20 11:43:45;;;;;;;0.30;0.30;;;6.10;49.90;;;;;;5054114;28;20572;-71
2023/01/20 11:46:24;;;;;;;0.40;0.40;;;5.60;50.50;;;;;;5054555;28;20251;-70
2023/01/20 11:49:04;;;;;;;0.50;0.50;;;5.30;52.70;;;;;;5054204;28;20190;-70
2023/01/20 11:51:30;;;;;;;0.85;0.82;;;5.20;54.00;;;;;;5054261;28;20254;-69
2023/01/20 11:54:13;;;;;;;0.40;0.40;;;5.30;53.90;;;;;;5053549;28;20608;-69
2023/01/20 11:56:42;;;;;;;0.40;0.40;;;5.20;53.30;;;;;;5054114;28;20168;-69
2023/01/20 11:59:27;;;;;;;0.70;0.70;;;5.00;53.00;;;;;;5054032;28;20682;-70
2023/01/20 12:01:56;;;;;;;0.30;0.30;;;4.60;53.10;;;;;;5054004;28;20174;-71
2023/01/20 12:05:07;;;;;;;0.40;0.40;;;4.30;53.90;;;;;;5054124;28;20206;-69
2023/01/20 12:07:40;;;;;;;0.77;0.63;;;4.40;55.30;;;;;;5054042;28;20175;-69
2023/01/20 12:10:31;;;;;;;0.40;0.40;;;4.60;54.70;;;;;;5053895;28;20174;-70
2023/01/20 12:13:21;;;;;;;0.40;0.40;;;4.70;57.00;;;;;;5053770;28;20189;-68
2023/01/20 12:15:53;;;;;;;0.32;0.32;;;4.70;56.20;;;;;;5053953;28;20174;-73
2023/01/20 12:18:51;;;;;;;0.50;0.50;;;4.60;55.90;;;;;;5052484;28;20537;-70
2023/01/20 12:21:17;;;;;;;0.40;0.40;;;4.50;56.80;;;;;;5053724;28;20174;-69
2023/01/20 12:23:49;;;;;;;0.40;0.40;;;4.50;56.60;;;;;;5053410;28;20194;-69
2023/01/20 12:26:17;;;;;;;0.40;0.40;;;4.60;56.20;;;;;;5053936;28;20531;-71
2023/01/20 12:29:12;;;;;;;0.40;0.40;;;4.70;56.10;;;;;;5053492;28;20209;-71
2023/01/20 12:31:38;;;;;;;2.15;0.77;;;4.70;57.20;;;;;;5053482;28;20154;-70
2023/01/20 12:34:10;;;;;;;0.40;0.40;;;4.80;57.40;;;;;;5053755;28;20174;-69
2023/01/20 12:36:42;;;;;;;0.50;0.50;;;4.90;56.70;;;;;;5053563;28;20183;-69
2023/01/20 12:39:34;;;;;;;0.40;0.40;;;5.10;57.70;;;;;;5053421;28;20219;-70
2023/01/20 12:42:09;;;;;;;0.60;0.60;;;5.10;58.10;;;;;;5053497;28;20170;-72
2023/01/20 12:44:49;;;;;;;0.40;0.40;;;5.00;56.90;;;;;;5053358;28;20206;-72
2023/01/20 12:47:43;;;;;;;0.50;0.50;;;4.90;57.50;;;;;;5053522;28;20174;-70
2023/01/20 12:50:11;;;;;;;0.70;0.70;;;4.90;56.90;;;;;;5052496;28;20304;-72
2023/01/20 12:53:02;;;;;;;0.88;0.88;;;4.80;55.60;;;;;;5051973;28;20204;-69
2023/01/20 12:55:40;;;;;;;0.50;0.50;;;4.60;56.30;;;;;;5053588;28;20169;-68
2023/01/20 12:59:06;;;;;;;0.50;0.50;;;4.30;58.70;;;;;;5053437;28;20248;-71
2023/01/20 13:01:56;;;;;;;0.77;0.77;;;4.00;59.90;;;;;;5031311;28;20191;-70
2023/01/20 13:04:28;;;;;;;1.30;1.20;;;3.80;62.50;;;;;;5054273;28;20547;-71
2023/01/20 13:07:11;;;;;;;0.60;0.60;;;3.80;63.70;;;;;;5057498;28;20220;-69
2023/01/20 13:10:03;;;;;;;0.40;0.40;;;3.80;61.10;;;;;;5057207;28;20181;-70
2023/01/20 13:12:28;;;;;;;0.98;0.95;;;3.80;61.00;;;;;;5040378;28;20205;-70
2023/01/20 13:15:21;;;;;;;3.90;2.30;;;3.80;61.80;;;;;;5057435;28;20202;-69
2023/01/20 13:18:28;;;;;;;2.22;2.13;;;3.90;62.70;;;;;;5057718;28;20526;-69
2023/01/20 13:20:54;;;;;;;0.50;0.50;;;3.80;63.60;;;;;;5035272;28;20279;-72
2023/01/20 13:23:29;;;;;;;3.05;2.85;;;3.70;65.60;;;;;;5053285;28;20563;-69
2023/01/20 13:25:55;;;;;;;0.40;0.40;;;3.50;66.70;;;;;;5057194;28;20259;-70